Time;durP1;ratioP1;P1;durP2;ratioP2;P2;SDS_P1;SDS_P2;PMS_P1;PMS_P2;Temp;Humidity;BMP_temperature;BMP_pressure;BME280_temperature;BME280_humidity;BME280_pressure;Samples;Min_cycle;Max_cycle;Signal;HPM_P1;HPM_P2
2021/03/25 00:01:41;;;;;;;;;;;23.10;96.30;;;;;;4966629;28;20337;-88
2021/03/25 00:04:11;;;;;;;;;;;23.20;95.00;;;;;;4976362;28;20369;-88
2021/03/25 00:06:39;;;;;;;;;;;23.30;95.00;;;;;;4961007;28;20141;-87
2021/03/25 00:09:15;;;;;;;;;;;23.30;95.00;;;;;;4961714;28;19993;-89
2021/03/25 00:11:42;;;;;;;;;;;23.30;95.00;;;;;;4963655;28;20318;-89
2021/03/25 00:16:48;;;;;;;;;;;23.40;94.90;;;;;;4962616;23;19974;-81
2021/03/25 00:19:15;;;;;;;;;;;23.40;95.20;;;;;;4941039;29;19926;-83
2021/03/25 00:21:42;;;;;;;;;;;23.50;94.10;;;;;;4958845;29;19911;-84
2021/03/25 00:24:13;;;;;;;;;;;23.60;94.10;;;;;;4950316;29;19910;-83
2021/03/25 00:26:40;;;;;;;;;;;23.70;94.20;;;;;;4956512;29;19914;-89
2021/03/25 00:29:07;;;;;;;;;;;23.70;93.40;;;;;;4937012;29;20313;-86
2021/03/25 00:31:35;;;;;;;;;;;23.80;94.00;;;;;;4956248;29;19914;-91
2021/03/25 00:34:02;;;;;;;;;;;23.90;93.90;;;;;;4947585;29;20428;-84
2021/03/25 00:36:30;;;;;;;;;;;23.80;93.20;;;;;;4940392;29;20346;-83
2021/03/25 00:38:58;;;;;;;;;;;23.70;94.10;;;;;;4952152;29;19978;-89
2021/03/25 00:41:26;;;;;;;;;;;23.70;93.60;;;;;;4920653;29;20009;-85
2021/03/25 00:43:53;;;;;;;;;;;23.80;93.00;;;;;;4953637;29;19915;-89
2021/03/25 00:46:21;;;;;;;;;;;23.90;92.70;;;;;;4949342;29;20277;-85
2021/03/25 00:48:48;;;;;;;;;;;24.00;92.50;;;;;;4957147;29;19930;-84
2021/03/25 00:51:17;;;;;;;;;;;24.10;92.60;;;;;;4954317;29;19942;-82
2021/03/25 00:53:44;;;;;;;;;;;24.30;91.60;;;;;;4957747;29;19958;-86
2021/03/25 00:56:11;;;;;;;;;;;24.30;92.00;;;;;;4959908;29;19911;-83
2021/03/25 00:58:38;;;;;;;;;;;24.40;91.70;;;;;;4958610;29;19921;-84
2021/03/25 01:01:08;;;;;;;;;;;24.70;91.00;;;;;;4958790;29;19911;-83
2021/03/25 01:03:35;;;;;;;;;;;24.80;90.80;;;;;;4942963;29;19915;-84
2021/03/25 01:06:02;;;;;;;;;;;24.80;90.50;;;;;;4958489;29;20365;-92
2021/03/25 01:08:29;;;;;;;;;;;24.70;90.50;;;;;;4939219;28;19949;-91
2021/03/25 01:11:15;;;;;;;;;;;24.90;90.60;;;;;;4935174;29;19938;-87
2021/03/25 01:13:47;;;;;;;;;;;24.90;91.30;;;;;;4953355;29;20372;-86
2021/03/25 01:16:19;;;;;;;;;;;25.10;89.20;;;;;;4956612;28;20054;-86
2021/03/25 01:18:49;;;;;;;;;;;25.40;89.00;;;;;;4951829;28;19922;-87
2021/03/25 01:21:16;;;;;;;;;;;25.60;89.00;;;;;;4979347;28;19910;-85
2021/03/25 01:23:42;;;;;;;;;;;25.60;90.10;;;;;;4975115;29;19915;-81
2021/03/25 01:26:09;;;;;;;;;;;25.70;88.90;;;;;;4970474;29;19910;-92
2021/03/25 01:28:38;;;;;;;;;;;25.90;87.50;;;;;;4955507;29;19926;-89
2021/03/25 01:31:05;;;;;;;;;;;25.90;87.20;;;;;;4955715;29;19921;-87
2021/03/25 01:33:32;;;;;;;;;;;25.90;88.00;;;;;;4956097;29;19961;-86
2021/03/25 01:35:58;;;;;;;;;;;25.90;86.60;;;;;;4939262;29;19919;-84
2021/03/25 01:38:25;;;;;;;;;;;26.10;87.00;;;;;;4938791;29;19914;-87
2021/03/25 01:40:58;;;;;;;;;;;26.30;84.20;;;;;;4955692;29;19958;-87
2021/03/25 01:43:27;;;;;;;;;;;26.20;84.10;;;;;;4943091;29;19923;-87
2021/03/25 01:46:12;;;;;;;;;;;26.00;84.90;;;;;;4952624;29;19914;-85
2021/03/25 01:48:39;;;;;;;;;;;25.90;85.80;;;;;;4953007;29;19927;-82
2021/03/25 01:51:08;;;;;;;;;;;25.80;87.60;;;;;;4938696;29;20013;-82
2021/03/25 01:53:44;;;;;;;;;;;25.80;87.10;;;;;;4940579;29;19932;-83
2021/03/25 01:56:27;;;;;;;;;;;25.80;87.10;;;;;;4936240;29;20280;-87
2021/03/25 01:59:06;;;;;;;;;;;25.70;86.00;;;;;;4951724;29;20013;-85
2021/03/25 02:01:53;;;;;;;;;;;25.50;88.00;;;;;;4954310;28;19925;-84
2021/03/25 02:04:28;;;;;;;;;;;25.50;86.40;;;;;;4954872;29;19922;-78
2021/03/25 02:07:14;;;;;;;;;;;25.50;86.30;;;;;;4970699;29;20368;-80
2021/03/25 02:12:57;;;;;;;;;;;25.90;85.70;;;;;;4945121;29;19915;-84
2021/03/25 02:15:33;;;;;;;;;;;26.00;85.60;;;;;;4940574;29;19914;-83
2021/03/25 02:18:11;;;;;;;;;;;26.00;85.30;;;;;;4935995;29;19925;-87
2021/03/25 02:20:47;;;;;;;;;;;26.00;85.10;;;;;;4946269;28;20017;-83
2021/03/25 02:23:38;;;;;;;;;;;26.10;85.40;;;;;;4934018;29;19998;-80
2021/03/25 02:26:30;;;;;;;;;;;26.10;84.10;;;;;;4948057;29;19914;-84
2021/03/25 02:29:00;;;;;;;;;;;26.10;84.80;;;;;;4934187;29;19922;-85
2021/03/25 02:31:30;;;;;;;;;;;26.10;84.50;;;;;;4955119;29;19918;-85
2021/03/25 02:33:58;;;;;;;;;;;26.10;82.90;;;;;;4954428;29;20018;-80
2021/03/25 02:36:30;;;;;;;;;;;26.00;84.70;;;;;;4938532;29;19910;-86
2021/03/25 02:39:10;;;;;;;;;;;26.00;85.40;;;;;;4953705;29;19962;-83
2021/03/25 02:41:44;;;;;;;;;;;26.10;84.50;;;;;;4936476;29;19933;-82
2021/03/25 02:44:12;;;;;;;;;;;26.10;85.10;;;;;;4937279;29;19989;-84
2021/03/25 02:46:41;;;;;;;;;;;26.00;84.10;;;;;;4953627;29;20369;-84
2021/03/25 02:49:10;;;;;;;;;;;26.00;84.90;;;;;;4954147;29;20280;-88
2021/03/25 02:51:42;;;;;;;;;;;26.10;84.70;;;;;;4952553;29;19915;-83
2021/03/25 02:54:10;;;;;;;;;;;26.10;84.10;;;;;;4954676;29;19915;-85
2021/03/25 02:56:49;;;;;;;;;;;26.30;85.20;;;;;;4953931;29;20325;-80
2021/03/25 02:59:37;;;;;;;;;;;26.50;83.00;;;;;;4933472;29;20365;-84
2021/03/25 03:02:17;;;;;;;;;;;26.40;83.20;;;;;;4950102;29;19925;-84
2021/03/25 03:04:45;;;;;;;;;;;26.20;83.00;;;;;;4934050;29;19918;-84
2021/03/25 03:07:15;;;;;;;;;;;26.00;85.00;;;;;;4960640;29;19918;-79
2021/03/25 03:09:46;;;;;;;;;;;26.00;84.20;;;;;;4963908;29;20005;-86
2021/03/25 03:12:18;;;;;;;;;;;26.00;83.80;;;;;;4958796;29;19930;-83
2021/03/25 03:15:12;;;;;;;;;;;25.90;84.40;;;;;;4936462;29;20280;-83
2021/03/25 03:17:50;;;;;;;;;;;25.90;83.90;;;;;;4950635;29;19977;-84
2021/03/25 03:20:24;;;;;;;;;;;25.80;87.70;;;;;;4952218;29;19965;-79
2021/03/25 03:22:52;;;;;;;;;;;25.50;88.80;;;;;;4934207;29;20254;-82
2021/03/25 03:25:23;;;;;;;;;;;25.20;89.50;;;;;;4947480;29;19914;-85
2021/03/25 03:27:57;;;;;;;;;;;25.10;90.20;;;;;;4932855;29;19923;-83
2021/03/25 03:30:39;;;;;;;;;;;24.90;91.20;;;;;;4934685;29;20377;-83
2021/03/25 03:33:26;;;;;;;;;;;24.80;90.90;;;;;;4934032;29;19911;-83
2021/03/25 03:36:02;;;;;;;;;;;24.60;91.50;;;;;;4954570;29;19946;-84
2021/03/25 03:38:33;;;;;;;;;;;24.60;90.30;;;;;;4956985;29;20142;-85
2021/03/25 03:41:04;;;;;;;;;;;24.50;91.30;;;;;;4956181;29;20398;-86
2021/03/25 03:43:32;;;;;;;;;;;24.40;90.90;;;;;;4939345;29;19969;-82
2021/03/25 03:46:02;;;;;;;;;;;24.30;90.60;;;;;;4955249;29;19946;-82
2021/03/25 03:48:35;;;;;;;;;;;24.30;91.60;;;;;;4956903;29;20017;-82
2021/03/25 03:51:03;;;;;;;;;;;24.20;91.90;;;;;;4937056;29;19946;-83
2021/03/25 03:53:30;;;;;;;;;;;24.10;92.10;;;;;;4938768;29;20327;-81
2021/03/25 03:56:09;;;;;;;;;;;23.90;92.10;;;;;;4955395;29;20008;-86
2021/03/25 03:58:45;;;;;;;;;;;23.90;92.40;;;;;;4936749;29;19970;-81
2021/03/25 04:01:25;;;;;;;;;;;23.80;92.50;;;;;;4956059;29;20001;-82
2021/03/25 04:03:56;;;;;;;;;;;23.70;92.50;;;;;;4956610;29;20014;-84
2021/03/25 04:06:37;;;;;;;;;;;23.70;92.90;;;;;;4929367;29;20284;-83
2021/03/25 04:09:08;;;;;;;;;;;23.70;93.00;;;;;;4962147;29;19978;-81
2021/03/25 04:11:41;;;;;;;;;;;23.60;94.00;;;;;;4957090;29;19915;-83
2021/03/25 04:14:15;;;;;;;;;;;23.40;94.90;;;;;;4958752;29;19946;-79
2021/03/25 04:16:42;;;;;;;;;;;23.20;97.10;;;;;;4937140;29;19929;-82
2021/03/25 04:19:09;;;;;;;;;;;22.90;98.60;;;;;;4952205;29;19911;-78
2021/03/25 04:21:41;;;;;;;;;;;22.60;99.90;;;;;;4937737;29;19918;-77
2021/03/25 04:24:10;;;;;;;;;;;22.00;99.90;;;;;;4939190;29;19960;-79
2021/03/25 04:26:49;;;;;;;;;;;21.60;99.90;;;;;;4954524;29;20017;-78
2021/03/25 04:29:51;;;;;;;;;;;21.30;99.90;;;;;;4941643;29;19937;-77
2021/03/25 04:32:19;;;;;;;;;;;21.10;99.90;;;;;;4882757;29;19972;-78
2021/03/25 04:34:49;;;;;;;;;;;20.80;99.90;;;;;;4872252;29;19920;-80
2021/03/25 04:37:17;;;;;;;;;;;20.80;99.90;;;;;;4874552;29;20322;-79
2021/03/25 04:39:44;;;;;;;;;;;20.90;99.90;;;;;;4879099;29;20352;-79
2021/03/25 04:42:16;;;;;;;;;;;21.00;99.90;;;;;;4956497;29;19918;-81
2021/03/25 04:44:47;;;;;;;;;;;21.10;99.90;;;;;;4938081;29;19922;-82
2021/03/25 04:47:29;;;;;;;;;;;21.00;99.90;;;;;;4939201;29;19914;-82
2021/03/25 04:50:17;;;;;;;;;;;21.00;99.90;;;;;;4938880;29;19993;-82
2021/03/25 04:52:44;;;;;;;;;;;20.80;99.90;;;;;;4959333;29;19965;-78
2021/03/25 04:55:19;;;;;;;;;;;20.80;99.90;;;;;;4941505;29;20287;-78
2021/03/25 04:57:54;;;;;;;;;;;20.80;99.90;;;;;;4940194;29;19918;-78
2021/03/25 05:00:26;;;;;;;;;;;20.80;99.90;;;;;;4949088;29;19915;-83
2021/03/25 05:02:54;;;;;;;;;;;20.90;99.90;;;;;;4954145;29;19953;-82
2021/03/25 05:05:24;;;;;;;;;;;21.00;99.90;;;;;;4936683;29;19914;-80
2021/03/25 05:07:57;;;;;;;;;;;21.00;99.90;;;;;;4953152;29;19986;-78
2021/03/25 05:10:29;;;;;;;;;;;21.10;99.90;;;;;;4936653;29;19924;-81
2021/03/25 05:12:58;;;;;;;;;;;21.20;99.90;;;;;;4954378;29;19914;-82
2021/03/25 05:15:27;;;;;;;;;;;21.40;99.90;;;;;;4936727;29;19911;-81
2021/03/25 05:18:02;;;;;;;;;;;21.40;99.90;;;;;;4934863;29;19962;-81
2021/03/25 05:20:39;;;;;;;;;;;21.40;99.90;;;;;;4935746;29;20001;-85
2021/03/25 05:23:05;;;;;;;;;;;21.40;99.90;;;;;;4935844;29;19915;-82
2021/03/25 05:25:38;;;;;;;;;;;21.50;99.90;;;;;;4951646;29;19922;-83
2021/03/25 05:28:09;;;;;;;;;;;21.50;99.90;;;;;;4960974;29;20375;-85
2021/03/25 05:30:37;;;;;;;;;;;21.50;99.90;;;;;;4964177;29;19915;-85
2021/03/25 05:33:11;;;;;;;;;;;21.60;99.90;;;;;;4966102;29;19922;-83
2021/03/25 05:35:45;;;;;;;;;;;21.60;99.90;;;;;;4961146;29;19958;-85
2021/03/25 05:38:12;;;;;;;;;;;21.70;99.90;;;;;;4955881;29;19921;-88
2021/03/25 05:40:41;;;;;;;;;;;21.90;99.90;;;;;;4955090;29;19917;-84
2021/03/25 05:43:33;;;;;;;;;;;21.90;99.90;;;;;;4956090;29;20005;-86
2021/03/25 05:46:09;;;;;;;;;;;22.00;99.90;;;;;;4900377;29;19922;-80
2021/03/25 05:48:55;;;;;;;;;;;22.10;99.90;;;;;;4936931;29;20001;-85
2021/03/25 05:51:25;;;;;;;;;;;22.20;99.90;;;;;;4956086;29;19958;-81
2021/03/25 05:54:13;;;;;;;;;;;22.20;99.90;;;;;;4938346;29;19917;-82
2021/03/25 05:56:39;;;;;;;;;;;22.10;99.90;;;;;;4936814;29;19923;-83
2021/03/25 05:59:12;;;;;;;;;;;22.10;99.90;;;;;;4955965;29;19914;-85
2021/03/25 06:01:46;;;;;;;;;;;22.20;99.90;;;;;;4952877;29;19923;-84
2021/03/25 06:04:24;;;;;;;;;;;22.20;99.90;;;;;;4919276;29;19919;-80
2021/03/25 06:07:10;;;;;;;;;;;22.20;99.90;;;;;;4943453;29;19919;-83
2021/03/25 06:09:50;;;;;;;;;;;22.20;99.90;;;;;;4933545;29;19918;-80
2021/03/25 06:12:23;;;;;;;;;;;22.30;99.90;;;;;;4939075;29;20285;-86
2021/03/25 06:15:19;;;;;;;;;;;22.30;99.90;;;;;;4935750;29;19918;-83
2021/03/25 06:17:48;;;;;;;;;;;22.20;99.90;;;;;;4919402;29;19926;-83
2021/03/25 06:20:24;;;;;;;;;;;22.10;99.90;;;;;;4935513;29;19926;-83
2021/03/25 06:23:09;;;;;;;;;;;22.10;99.90;;;;;;4935652;29;19970;-82
2021/03/25 06:25:41;;;;;;;;;;;22.20;99.90;;;;;;4915517;29;19912;-83
2021/03/25 06:28:17;;;;;;;;;;;22.10;99.90;;;;;;4912820;29;19938;-81
2021/03/25 06:31:03;;;;;;;;;;;22.00;99.90;;;;;;4935205;29;19918;-78
2021/03/25 06:33:41;;;;;;;;;;;21.90;99.90;;;;;;4916796;29;19922;-80
2021/03/25 06:36:11;;;;;;;;;;;21.90;99.90;;;;;;4938271;29;19965;-83
2021/03/25 06:38:50;;;;;;;;;;;21.80;99.90;;;;;;4941273;29;20350;-79
2021/03/25 06:41:21;;;;;;;;;;;21.80;99.90;;;;;;4919769;29;20377;-78
2021/03/25 06:43:52;;;;;;;;;;;21.70;99.90;;;;;;4933926;29;19930;-79
2021/03/25 06:46:39;;;;;;;;;;;21.80;99.90;;;;;;4915932;29;19915;-80
2021/03/25 06:49:44;;;;;;;;;;;21.70;99.90;;;;;;4926742;29;19926;-79
2021/03/25 06:52:24;;;;;;;;;;;21.70;99.90;;;;;;4875267;29;20724;-85
2021/03/25 06:54:54;;;;;;;;;;;21.70;99.90;;;;;;4893240;29;19916;-83
2021/03/25 06:57:22;;;;;;;;;;;21.70;99.90;;;;;;4903450;29;19915;-80
2021/03/25 06:59:49;;;;;;;;;;;21.70;99.90;;;;;;4931669;29;19991;-82
2021/03/25 07:02:20;;;;;;;;;;;21.70;99.90;;;;;;4933247;29;19921;-82
2021/03/25 07:04:49;;;;;;;;;;;21.80;99.90;;;;;;4933700;29;19966;-80
2021/03/25 07:07:33;;;;;;;;;;;21.70;99.90;;;;;;4934761;29;19930;-82
2021/03/25 07:10:00;;;;;;;;;;;21.70;99.90;;;;;;4916519;29;19935;-86
2021/03/25 07:12:31;;;;;;;;;;;21.80;99.90;;;;;;4907867;29;19958;-82
2021/03/25 07:14:59;;;;;;;;;;;21.70;99.90;;;;;;4918297;29;20401;-86
2021/03/25 07:17:29;;;;;;;;;;;21.80;99.90;;;;;;4937393;29;20353;-87
2021/03/25 07:19:56;;;;;;;;;;;21.80;99.90;;;;;;4943492;29;19911;-87
2021/03/25 07:22:22;;;;;;;;;;;21.80;99.90;;;;;;4923213;29;19918;-84
2021/03/25 07:24:53;;;;;;;;;;;21.80;99.90;;;;;;4941632;29;19939;-81
2021/03/25 07:27:33;;;;;;;;;;;21.80;99.90;;;;;;4944648;29;19911;-80
2021/03/25 07:30:19;;;;;;;;;;;21.80;99.90;;;;;;4944471;29;19921;-87
2021/03/25 07:32:48;;;;;;;;;;;21.70;99.90;;;;;;4944755;29;19939;-87
2021/03/25 07:35:15;;;;;;;;;;;21.70;99.90;;;;;;4943680;29;20429;-82
2021/03/25 07:37:43;;;;;;;;;;;21.70;99.90;;;;;;4939715;29;19953;-84
2021/03/25 07:40:29;;;;;;;;;;;21.70;99.90;;;;;;4938265;29;20404;-81
2021/03/25 07:42:57;;;;;;;;;;;21.70;99.90;;;;;;4938177;29;19911;-87
2021/03/25 07:45:26;;;;;;;;;;;21.80;99.90;;;;;;4921166;29;20009;-88
2021/03/25 07:47:54;;;;;;;;;;;21.80;99.90;;;;;;4937316;29;19919;-78
2021/03/25 07:50:24;;;;;;;;;;;21.90;99.90;;;;;;4921203;29;19919;-81
2021/03/25 07:52:51;;;;;;;;;;;21.80;99.90;;;;;;4938179;29;19966;-82
2021/03/25 07:55:21;;;;;;;;;;;21.80;99.90;;;;;;4938304;29;20277;-81
2021/03/25 07:57:49;;;;;;;;;;;21.70;99.90;;;;;;4937630;29;19915;-80
2021/03/25 08:00:20;;;;;;;;;;;21.70;99.90;;;;;;4936416;29;19942;-82
2021/03/25 08:02:47;;;;;;;;;;;21.60;99.90;;;;;;4921474;29;20369;-81
2021/03/25 08:05:16;;;;;;;;;;;21.70;99.90;;;;;;4938224;29;19911;-80
2021/03/25 08:07:45;;;;;;;;;;;21.70;99.90;;;;;;4938603;29;19977;-85
2021/03/25 08:10:38;;;;;;;;;;;21.70;99.90;;;;;;4938850;29;20034;-80
2021/03/25 08:13:10;;;;;;;;;;;21.80;99.90;;;;;;4935214;29;19911;-77
2021/03/25 08:15:41;;;;;;;;;;;21.80;99.90;;;;;;4921000;29;20348;-82
2021/03/25 08:18:08;;;;;;;;;;;22.00;97.80;;;;;;4938091;29;19918;-81
2021/03/25 08:20:37;;;;;;;;;;;22.20;96.30;;;;;;4937657;29;19966;-79
2021/03/25 08:23:36;;;;;;;;;;;22.50;95.10;;;;;;4939313;29;19922;-80
2021/03/25 08:26:11;;;;;;;;;;;22.60;95.20;;;;;;4927777;29;19978;-78
2021/03/25 08:28:55;;;;;;;;;;;22.60;94.70;;;;;;4922709;29;20067;-76
2021/03/25 08:31:34;;;;;;;;;;;22.60;94.20;;;;;;4937096;29;19915;-84
2021/03/25 08:34:29;;;;;;;;;;;22.60;94.40;;;;;;4952721;29;19918;-77
2021/03/25 08:37:11;;;;;;;;;;;22.60;94.60;;;;;;4939904;29;19915;-81
2021/03/25 08:39:57;;;;;;;;;;;22.60;95.20;;;;;;4956835;29;20377;-84
2021/03/25 08:42:30;;;;;;;;;;;22.60;95.10;;;;;;4940064;29;19953;-80
2021/03/25 08:44:57;;;;;;;;;;;22.60;94.80;;;;;;4957301;29;20005;-82
2021/03/25 08:47:25;;;;;;;;;;;22.60;94.80;;;;;;4956777;29;19921;-82
2021/03/25 08:50:04;;;;;;;;;;;22.60;94.90;;;;;;4956415;29;19969;-83
2021/03/25 08:52:33;;;;;;;;;;;22.50;94.70;;;;;;4957044;29;19914;-83
2021/03/25 08:55:19;;;;;;;;;;;22.50;96.00;;;;;;4956154;29;19910;-83
2021/03/25 08:57:47;;;;;;;;;;;22.50;96.60;;;;;;4956611;29;19910;-79
2021/03/25 09:00:22;;;;;;;;;;;22.40;97.60;;;;;;4956607;29;20365;-86
2021/03/25 09:02:59;;;;;;;;;;;22.20;96.90;;;;;;4939602;29;19910;-82
2021/03/25 09:05:31;;;;;;;;;;;22.20;97.60;;;;;;4956235;29;19910;-83
2021/03/25 09:07:59;;;;;;;;;;;22.10;97.80;;;;;;4939115;29;19918;-81
2021/03/25 09:10:25;;;;;;;;;;;22.00;97.30;;;;;;4956273;29;19911;-78
2021/03/25 09:12:53;;;;;;;;;;;21.90;97.70;;;;;;4956491;29;20318;-85
2021/03/25 09:15:22;;;;;;;;;;;21.90;98.60;;;;;;4955993;29;19910;-81
2021/03/25 09:18:04;;;;;;;;;;;21.80;96.70;;;;;;4938842;29;20376;-81
2021/03/25 09:20:33;;;;;;;;;;;21.80;97.80;;;;;;4938533;29;20003;-85
2021/03/25 09:23:00;;;;;;;;;;;21.80;96.80;;;;;;4956208;29;19957;-83
2021/03/25 09:25:27;;;;;;;;;;;21.80;98.80;;;;;;4956147;29;20394;-83
2021/03/25 09:28:09;;;;;;;;;;;21.80;97.50;;;;;;4955903;29;19965;-80
2021/03/25 09:30:39;;;;;;;;;;;21.80;97.40;;;;;;4950598;28;20373;-79
2021/03/25 09:33:24;;;;;;;;;;;21.70;95.20;;;;;;4956389;29;19980;-80
2021/03/25 09:35:50;;;;;;;;;;;21.80;94.80;;;;;;4955929;29;19914;-82
2021/03/25 09:38:31;;;;;;;;;;;21.80;94.00;;;;;;4938362;29;20276;-83
2021/03/25 09:41:00;;;;;;;;;;;21.90;94.10;;;;;;4938872;29;19914;-82
2021/03/25 09:43:34;;;;;;;;;;;21.80;95.80;;;;;;4939001;29;19925;-84
2021/03/25 09:46:22;;;;;;;;;;;21.80;94.50;;;;;;4956150;29;20403;-82
2021/03/25 09:48:49;;;;;;;;;;;21.80;94.70;;;;;;4955653;29;19925;-81
2021/03/25 09:51:21;;;;;;;;;;;21.80;95.50;;;;;;4955479;29;19910;-83
2021/03/25 09:53:57;;;;;;;;;;;21.70;95.50;;;;;;4955259;29;19914;-84
2021/03/25 09:56:30;;;;;;;;;;;21.70;95.40;;;;;;4923276;29;19914;-80
2021/03/25 09:58:57;;;;;;;;;;;21.60;94.90;;;;;;4955609;29;19914;-84
2021/03/25 10:01:39;;;;;;;;;;;21.60;95.60;;;;;;4955396;29;19910;-81
2021/03/25 10:04:26;;;;;;;;;;;21.60;94.70;;;;;;4939081;29;20365;-83
2021/03/25 10:06:56;;;;;;;;;;;21.60;96.10;;;;;;4956326;29;20005;-78
2021/03/25 10:09:46;;;;;;;;;;;21.50;94.70;;;;;;4943444;29;19922;-78
2021/03/25 10:12:14;;;;;;;;;;;21.50;93.90;;;;;;4955836;29;19918;-78
2021/03/25 10:14:54;;;;;;;;;;;21.50;94.50;;;;;;4941952;29;20357;-81
2021/03/25 10:17:39;;;;;;;;;;;21.50;94.40;;;;;;4955492;29;19929;-85
2021/03/25 10:20:10;;;;;;;;;;;21.50;94.30;;;;;;4954606;29;19957;-80
2021/03/25 10:22:36;;;;;;;;;;;21.50;94.20;;;;;;4952859;29;20005;-82
2021/03/25 10:25:06;;;;;;;;;;;21.50;93.40;;;;;;4938122;29;19929;-83
2021/03/25 10:27:38;;;;;;;;;;;21.40;94.40;;;;;;4954692;29;19910;-82
2021/03/25 10:30:21;;;;;;;;;;;21.50;95.20;;;;;;4954959;29;19922;-84
2021/03/25 10:32:48;;;;;;;;;;;21.50;94.40;;;;;;4937688;29;19966;-84
2021/03/25 10:35:20;;;;;;;;;;;21.40;94.00;;;;;;4954983;29;19997;-80
2021/03/25 10:37:50;;;;;;;;;;;21.40;94.50;;;;;;4955259;29;20337;-85
2021/03/25 10:40:25;;;;;;;;;;;21.40;94.40;;;;;;4955292;29;19950;-84
2021/03/25 10:43:07;;;;;;;;;;;21.40;94.00;;;;;;4937868;29;19917;-85
2021/03/25 10:45:37;;;;;;;;;;;21.30;96.10;;;;;;4932072;29;20262;-86
2021/03/25 10:48:21;;;;;;;;;;;21.30;96.30;;;;;;4937078;29;19923;-81
2021/03/25 10:50:51;;;;;;;;;;;21.30;94.40;;;;;;4954740;29;19965;-81
2021/03/25 10:53:20;;;;;;;;;;;21.30;94.10;;;;;;4937404;29;19911;-78
2021/03/25 10:55:49;;;;;;;;;;;21.20;94.00;;;;;;4955000;29;19918;-78
2021/03/25 10:58:24;;;;;;;;;;;21.20;94.00;;;;;;4953447;29;19947;-79
2021/03/25 11:01:01;;;;;;;;;;;21.30;93.50;;;;;;4955388;29;19950;-82
2021/03/25 11:03:34;;;;;;;;;;;21.30;93.60;;;;;;4954515;29;19917;-79
2021/03/25 11:06:03;;;;;;;;;;;21.20;93.50;;;;;;4954617;29;20408;-79
2021/03/25 11:08:32;;;;;;;;;;;21.20;93.50;;;;;;4937256;29;19922;-77
2021/03/25 11:11:18;;;;;;;;;;;21.20;94.20;;;;;;4954676;29;20252;-80
2021/03/25 11:14:02;;;;;;;;;;;21.20;94.00;;;;;;4953767;29;20364;-79
2021/03/25 11:16:31;;;;;;;;;;;21.10;95.00;;;;;;4937119;29;20355;-78
2021/03/25 11:18:58;;;;;;;;;;;21.10;94.20;;;;;;4937589;29;19910;-80
2021/03/25 11:21:33;;;;;;;;;;;21.10;94.30;;;;;;4954733;29;19950;-80
2021/03/25 11:24:05;;;;;;;;;;;21.10;94.30;;;;;;4959137;29;19911;-76
2021/03/25 11:26:32;;;;;;;;;;;21.00;93.70;;;;;;4957724;29;19910;-77
2021/03/25 11:29:01;;;;;;;;;;;21.10;94.30;;;;;;4957251;29;19960;-75
2021/03/25 11:31:31;;;;;;;;;;;21.00;93.70;;;;;;4937288;29;19914;-80
2021/03/25 11:33:58;;;;;;;;;;;21.10;93.90;;;;;;4934171;29;20341;-78
2021/03/25 11:36:36;;;;;;;;;;;21.10;94.40;;;;;;4954057;29;19910;-77
2021/03/25 11:39:28;;;;;;;;;;;21.00;94.00;;;;;;4953351;29;20364;-83
2021/03/25 11:41:57;;;;;;;;;;;21.00;95.50;;;;;;4952560;29;19911;-82
2021/03/25 11:44:41;;;;;;;;;;;20.90;94.60;;;;;;4953794;29;19915;-80
2021/03/25 11:47:26;;;;;;;;;;;20.90;95.10;;;;;;4935130;29;19922;-82
2021/03/25 11:49:52;;;;;;;;;;;20.90;95.10;;;;;;4935430;29;19919;-79
2021/03/25 11:52:19;;;;;;;;;;;20.90;95.40;;;;;;4942416;29;19914;-81
2021/03/25 11:54:48;;;;;;;;;;;20.80;96.30;;;;;;4953749;29;19950;-77
2021/03/25 11:57:17;;;;;;;;;;;20.80;95.10;;;;;;4959347;29;19957;-77
2021/03/25 11:59:44;;;;;;;;;;;20.80;95.60;;;;;;4967235;29;19918;-78
2021/03/25 12:02:14;;;;;;;;;;;20.80;95.10;;;;;;4963341;29;19946;-77
2021/03/25 12:04:40;;;;;;;;;;;20.80;94.70;;;;;;4956670;29;20254;-79
2021/03/25 12:07:10;;;;;;;;;;;20.80;95.20;;;;;;4956203;29;19922;-81
2021/03/25 12:09:36;;;;;;;;;;;20.70;94.80;;;;;;4956660;29;19929;-78
2021/03/25 12:12:03;;;;;;;;;;;20.70;95.30;;;;;;4955908;29;19988;-78
2021/03/25 12:14:30;;;;;;;;;;;20.70;95.60;;;;;;4956061;29;19948;-85
2021/03/25 12:16:58;;;;;;;;;;;20.70;96.20;;;;;;4955418;29;19929;-82
2021/03/25 12:19:26;;;;;;;;;;;20.70;95.50;;;;;;4950736;29;19910;-76
2021/03/25 12:21:54;;;;;;;;;;;20.60;95.40;;;;;;4956034;29;19911;-81
2021/03/25 12:24:21;;;;;;;;;;;20.60;96.10;;;;;;4914540;29;20349;-81
2021/03/25 12:26:47;;;;;;;;;;;20.60;96.60;;;;;;4925050;29;19914;-79
2021/03/25 12:29:14;;;;;;;;;;;20.60;96.20;;;;;;4956272;29;19929;-76
2021/03/25 12:31:42;;;;;;;;;;;20.60;96.20;;;;;;4956759;29;19910;-78
2021/03/25 12:34:10;;;;;;;;;;;20.50;96.20;;;;;;4956034;29;19914;-77
2021/03/25 12:36:37;;;;;;;;;;;20.50;97.70;;;;;;4957003;29;19918;-78
2021/03/25 12:39:06;;;;;;;;;;;20.50;96.30;;;;;;4956788;29;19946;-78
2021/03/25 12:41:42;;;;;;;;;;;20.50;97.60;;;;;;4956429;29;19910;-76
2021/03/25 12:44:12;;;;;;;;;;;20.40;97.90;;;;;;4953319;29;19914;-78
2021/03/25 12:46:39;;;;;;;;;;;20.40;96.70;;;;;;4956213;29;19919;-79
2021/03/25 12:49:06;;;;;;;;;;;20.40;96.10;;;;;;4939261;29;19923;-76
2021/03/25 12:51:32;;;;;;;;;;;20.40;96.10;;;;;;4956574;29;19911;-78
2021/03/25 12:53:59;;;;;;;;;;;20.30;96.50;;;;;;4956180;29;19921;-80
2021/03/25 12:56:27;;;;;;;;;;;20.30;96.70;;;;;;4939064;29;19946;-77
2021/03/25 12:58:54;;;;;;;;;;;20.30;96.50;;;;;;4954466;29;19922;-79
2021/03/25 13:01:23;;;;;;;;;;;20.20;96.80;;;;;;4956194;29;19954;-79
2021/03/25 13:03:50;;;;;;;;;;;20.30;96.90;;;;;;4956083;29;19919;-78
2021/03/25 13:06:17;;;;;;;;;;;20.20;97.30;;;;;;4956003;28;19921;-83
2021/03/25 13:08:44;;;;;;;;;;;20.20;97.40;;;;;;4952251;29;20010;-77
2021/03/25 13:11:18;;;;;;;;;;;20.20;98.00;;;;;;4956310;29;19914;-77
2021/03/25 13:13:45;;;;;;;;;;;20.20;98.30;;;;;;4955546;29;20001;-77
2021/03/25 13:16:12;;;;;;;;;;;20.10;98.00;;;;;;4938852;29;19923;-77
2021/03/25 13:18:39;;;;;;;;;;;20.10;97.60;;;;;;4938580;29;19918;-78
2021/03/25 13:21:06;;;;;;;;;;;20.10;97.70;;;;;;4938979;29;19914;-77
2021/03/25 13:23:33;;;;;;;;;;;20.10;99.10;;;;;;4955434;29;19921;-76
2021/03/25 13:26:01;;;;;;;;;;;20.10;99.80;;;;;;4954710;29;19918;-78
2021/03/25 13:28:29;;;;;;;;;;;20.10;99.60;;;;;;4938521;29;19953;-75
2021/03/25 13:30:57;;;;;;;;;;;20.10;99.30;;;;;;4935013;29;19979;-77
2021/03/25 13:33:24;;;;;;;;;;;20.00;98.50;;;;;;4938169;29;19918;-80
2021/03/25 13:35:51;;;;;;;;;;;19.90;98.30;;;;;;4955323;29;20025;-76
2021/03/25 13:38:18;;;;;;;;;;;19.80;98.30;;;;;;4955708;29;19914;-76
2021/03/25 13:40:46;;;;;;;;;;;19.80;98.40;;;;;;4954309;29;19910;-76
2021/03/25 13:43:15;;;;;;;;;;;19.80;98.40;;;;;;4922785;29;19915;-77
2021/03/25 13:45:42;;;;;;;;;;;19.70;98.70;;;;;;4955604;29;19919;-78
2021/03/25 13:48:08;;;;;;;;;;;19.70;99.40;;;;;;4965771;29;19966;-76
2021/03/25 13:50:35;;;;;;;;;;;19.70;99.00;;;;;;4949564;29;20001;-78
2021/03/25 13:53:05;;;;;;;;;;;19.70;98.90;;;;;;4957540;29;19917;-80
2021/03/25 13:55:39;;;;;;;;;;;19.70;99.20;;;;;;4955108;29;19911;-78
2021/03/25 13:58:07;;;;;;;;;;;19.70;99.00;;;;;;4955405;29;19935;-76
2021/03/25 14:00:34;;;;;;;;;;;19.60;99.40;;;;;;4955540;29;19914;-78
2021/03/25 14:03:01;;;;;;;;;;;19.60;99.60;;;;;;4954649;29;20005;-75
2021/03/25 14:05:31;;;;;;;;;;;19.50;99.90;;;;;;4953583;29;20399;-77
2021/03/25 14:07:58;;;;;;;;;;;19.40;99.90;;;;;;4955042;29;19977;-77
2021/03/25 14:10:27;;;;;;;;;;;19.30;99.90;;;;;;4938247;29;19941;-80
2021/03/25 14:12:54;;;;;;;;;;;19.30;99.90;;;;;;4938001;29;19921;-76
2021/03/25 14:15:25;;;;;;;;;;;19.20;99.90;;;;;;4954345;29;19914;-80
2021/03/25 14:17:52;;;;;;;;;;;19.20;99.90;;;;;;4954377;28;19918;-77
2021/03/25 14:20:21;;;;;;;;;;;19.10;99.90;;;;;;4954986;29;19922;-78
2021/03/25 14:22:47;;;;;;;;;;;19.10;99.90;;;;;;4955081;29;20042;-80
2021/03/25 14:25:25;;;;;;;;;;;19.00;99.90;;;;;;4954670;29;20069;-79
2021/03/25 14:27:52;;;;;;;;;;;19.00;99.90;;;;;;4955076;29;19915;-77
2021/03/25 14:30:19;;;;;;;;;;;19.00;99.90;;;;;;4955309;29;20369;-78
2021/03/25 14:32:46;;;;;;;;;;;19.10;99.90;;;;;;4937241;29;19922;-81
2021/03/25 14:35:17;;;;;;;;;;;19.10;99.90;;;;;;4953962;29;19914;-78
2021/03/25 14:37:45;;;;;;;;;;;19.10;99.90;;;;;;4934021;29;20262;-78
2021/03/25 14:40:13;;;;;;;;;;;19.10;99.90;;;;;;4938306;29;19918;-78
2021/03/25 14:42:40;;;;;;;;;;;19.10;99.90;;;;;;4954757;29;19921;-80
2021/03/25 14:45:07;;;;;;;;;;;19.10;99.90;;;;;;4955078;29;19941;-79
2021/03/25 14:47:39;;;;;;;;;;;19.00;99.90;;;;;;4953900;29;19918;-78
2021/03/25 14:50:08;;;;;;;;;;;19.00;99.90;;;;;;4954319;29;19920;-79
2021/03/25 14:52:35;;;;;;;;;;;19.10;99.90;;;;;;4937565;29;20353;-77